sensor_id;sensor_type;location;lat;lon;timestamp;P1;durP1;ratioP1;P2;durP2;ratioP2
18748;SDS011;9503;53.560;10.246;2023-09-19T00:01:39;7.15;;;2.63;;
18748;SDS011;9503;53.560;10.246;2023-09-19T00:04:07;3.45;;;2.55;;
18748;SDS011;9503;53.560;10.246;2023-09-19T00:06:35;5.68;;;2.63;;
18748;SDS011;9503;53.560;10.246;2023-09-19T00:09:02;2.85;;;2.40;;
18748;SDS011;9503;53.560;10.246;2023-09-19T00:11:29;6.38;;;2.63;;
18748;SDS011;9503;53.560;10.246;2023-09-19T00:13:56;7.50;;;2.90;;
18748;SDS011;9503;53.560;10.246;2023-09-19T00:16:24;4.93;;;2.83;;
18748;SDS011;9503;53.560;10.246;2023-09-19T00:18:52;3.83;;;2.60;;
18748;SDS011;9503;53.560;10.246;2023-09-19T00:21:20;2.97;;;2.42;;
18748;SDS011;9503;53.560;10.246;2023-09-19T00:23:47;5.00;;;2.40;;
18748;SDS011;9503;53.560;10.246;2023-09-19T00:26:14;4.78;;;2.97;;
18748;SDS011;9503;53.560;10.246;2023-09-19T00:28:43;2.63;;;2.30;;
18748;SDS011;9503;53.560;10.246;2023-09-19T00:31:09;4.38;;;2.38;;
18748;SDS011;9503;53.560;10.246;2023-09-19T00:33:36;4.07;;;2.72;;
18748;SDS011;9503;53.560;10.246;2023-09-19T00:36:03;4.35;;;2.30;;
18748;SDS011;9503;53.560;10.246;2023-09-19T00:38:31;3.35;;;2.25;;
18748;SDS011;9503;53.560;10.246;2023-09-19T00:40:58;3.17;;;2.33;;
18748;SDS011;9503;53.560;10.246;2023-09-19T00:43:25;4.88;;;2.53;;
18748;SDS011;9503;53.560;10.246;2023-09-19T00:45:53;4.32;;;2.40;;
18748;SDS011;9503;53.560;10.246;2023-09-19T00:48:22;5.22;;;2.72;;
18748;SDS011;9503;53.560;10.246;2023-09-19T00:50:49;3.33;;;2.50;;
18748;SDS011;9503;53.560;10.246;2023-09-19T00:53:19;3.10;;;2.28;;
18748;SDS011;9503;53.560;10.246;2023-09-19T00:55:49;5.30;;;2.85;;
18748;SDS011;9503;53.560;10.246;2023-09-19T00:58:17;5.18;;;2.72;;
18748;SDS011;9503;53.560;10.246;2023-09-19T01:00:43;3.83;;;2.65;;
18748;SDS011;9503;53.560;10.246;2023-09-19T01:03:10;4.07;;;2.55;;
18748;SDS011;9503;53.560;10.246;2023-09-19T01:05:38;6.45;;;2.55;;
18748;SDS011;9503;53.560;10.246;2023-09-19T01:08:05;4.57;;;2.90;;
18748;SDS011;9503;53.560;10.246;2023-09-19T01:10:32;3.75;;;2.60;;
18748;SDS011;9503;53.560;10.246;2023-09-19T01:13:02;6.00;;;2.70;;
18748;SDS011;9503;53.560;10.246;2023-09-19T01:15:38;4.97;;;2.92;;
18748;SDS011;9503;53.560;10.246;2023-09-19T01:18:13;4.85;;;3.22;;
18748;SDS011;9503;53.560;10.246;2023-09-19T01:20:51;5.65;;;2.92;;
18748;SDS011;9503;53.560;10.246;2023-09-19T01:23:24;6.00;;;2.83;;
18748;SDS011;9503;53.560;10.246;2023-09-19T01:29:06;6.88;;;3.08;;
18748;SDS011;9503;53.560;10.246;2023-09-19T01:31:47;6.43;;;3.00;;
18748;SDS011;9503;53.560;10.246;2023-09-19T01:34:19;7.03;;;3.42;;
18748;SDS011;9503;53.560;10.246;2023-09-19T01:36:46;4.93;;;3.40;;
18748;SDS011;9503;53.560;10.246;2023-09-19T01:39:12;5.72;;;3.33;;
18748;SDS011;9503;53.560;10.246;2023-09-19T01:41:49;5.10;;;3.67;;
18748;SDS011;9503;53.560;10.246;2023-09-19T01:44:24;6.55;;;3.97;;
18748;SDS011;9503;53.560;10.246;2023-09-19T01:47:11;4.22;;;3.47;;
18748;SDS011;9503;53.560;10.246;2023-09-19T01:49:44;5.05;;;3.40;;
18748;SDS011;9503;53.560;10.246;2023-09-19T01:52:22;6.10;;;3.70;;
18748;SDS011;9503;53.560;10.246;2023-09-19T01:54:56;5.45;;;4.40;;
18748;SDS011;9503;53.560;10.246;2023-09-19T01:57:30;5.85;;;4.00;;
18748;SDS011;9503;53.560;10.246;2023-09-19T02:00:01;5.32;;;3.88;;
18748;SDS011;9503;53.560;10.246;2023-09-19T02:02:34;5.72;;;3.67;;
18748;SDS011;9503;53.560;10.246;2023-09-19T02:05:02;4.50;;;3.50;;
18748;SDS011;9503;53.560;10.246;2023-09-19T02:07:30;7.55;;;4.05;;
18748;SDS011;9503;53.560;10.246;2023-09-19T02:09:57;7.63;;;3.60;;
18748;SDS011;9503;53.560;10.246;2023-09-19T02:12:25;9.90;;;3.40;;
18748;SDS011;9503;53.560;10.246;2023-09-19T02:14:51;5.43;;;3.25;;
18748;SDS011;9503;53.560;10.246;2023-09-19T02:17:18;6.22;;;3.70;;
18748;SDS011;9503;53.560;10.246;2023-09-19T02:19:46;8.18;;;3.30;;
18748;SDS011;9503;53.560;10.246;2023-09-19T02:22:13;8.20;;;3.30;;
18748;SDS011;9503;53.560;10.246;2023-09-19T02:24:41;6.75;;;3.75;;
18748;SDS011;9503;53.560;10.246;2023-09-19T02:27:07;5.25;;;3.50;;
18748;SDS011;9503;53.560;10.246;2023-09-19T02:29:37;5.90;;;3.72;;
18748;SDS011;9503;53.560;10.246;2023-09-19T02:32:04;3.88;;;3.17;;
18748;SDS011;9503;53.560;10.246;2023-09-19T02:34:31;6.78;;;3.65;;
18748;SDS011;9503;53.560;10.246;2023-09-19T02:37:02;8.20;;;3.92;;
18748;SDS011;9503;53.560;10.246;2023-09-19T02:39:31;4.45;;;3.30;;
18748;SDS011;9503;53.560;10.246;2023-09-19T02:41:57;6.40;;;3.30;;
18748;SDS011;9503;53.560;10.246;2023-09-19T02:44:24;5.40;;;3.65;;
18748;SDS011;9503;53.560;10.246;2023-09-19T02:46:52;4.38;;;3.25;;
18748;SDS011;9503;53.560;10.246;2023-09-19T02:49:19;7.78;;;3.45;;
18748;SDS011;9503;53.560;10.246;2023-09-19T02:51:46;7.05;;;3.55;;
18748;SDS011;9503;53.560;10.246;2023-09-19T02:54:14;6.60;;;3.33;;
18748;SDS011;9503;53.560;10.246;2023-09-19T02:56:42;6.78;;;3.42;;
18748;SDS011;9503;53.560;10.246;2023-09-19T02:59:09;7.72;;;3.80;;
18748;SDS011;9503;53.560;10.246;2023-09-19T03:01:36;9.20;;;4.80;;
18748;SDS011;9503;53.560;10.246;2023-09-19T03:04:03;5.85;;;3.58;;
18748;SDS011;9503;53.560;10.246;2023-09-19T03:06:32;5.28;;;3.30;;
18748;SDS011;9503;53.560;10.246;2023-09-19T03:08:58;8.00;;;4.05;;
18748;SDS011;9503;53.560;10.246;2023-09-19T03:11:27;7.03;;;3.38;;
18748;SDS011;9503;53.560;10.246;2023-09-19T03:13:54;4.88;;;2.90;;
18748;SDS011;9503;53.560;10.246;2023-09-19T03:16:21;5.47;;;2.90;;
18748;SDS011;9503;53.560;10.246;2023-09-19T03:18:48;4.53;;;3.20;;
18748;SDS011;9503;53.560;10.246;2023-09-19T03:21:15;6.22;;;3.13;;
18748;SDS011;9503;53.560;10.246;2023-09-19T03:23:43;8.02;;;3.55;;
18748;SDS011;9503;53.560;10.246;2023-09-19T03:26:11;7.95;;;3.22;;
18748;SDS011;9503;53.560;10.246;2023-09-19T03:28:41;4.38;;;2.78;;
18748;SDS011;9503;53.560;10.246;2023-09-19T03:31:08;3.70;;;3.10;;
18748;SDS011;9503;53.560;10.246;2023-09-19T03:33:35;4.13;;;2.80;;
18748;SDS011;9503;53.560;10.246;2023-09-19T03:36:02;8.35;;;3.22;;
18748;SDS011;9503;53.560;10.246;2023-09-19T03:38:30;8.43;;;3.40;;
18748;SDS011;9503;53.560;10.246;2023-09-19T03:40:57;6.82;;;3.20;;
18748;SDS011;9503;53.560;10.246;2023-09-19T03:43:25;5.72;;;3.20;;
18748;SDS011;9503;53.560;10.246;2023-09-19T03:45:53;8.00;;;2.70;;
18748;SDS011;9503;53.560;10.246;2023-09-19T03:48:20;6.40;;;3.15;;
18748;SDS011;9503;53.560;10.246;2023-09-19T03:50:48;4.82;;;2.88;;
18748;SDS011;9503;53.560;10.246;2023-09-19T03:53:14;5.15;;;2.83;;
18748;SDS011;9503;53.560;10.246;2023-09-19T03:55:41;6.43;;;2.85;;
18748;SDS011;9503;53.560;10.246;2023-09-19T03:58:10;5.40;;;2.85;;
18748;SDS011;9503;53.560;10.246;2023-09-19T04:00:37;5.80;;;3.17;;
18748;SDS011;9503;53.560;10.246;2023-09-19T04:03:05;4.53;;;2.42;;
18748;SDS011;9503;53.560;10.246;2023-09-19T04:05:32;6.72;;;2.83;;
18748;SDS011;9503;53.560;10.246;2023-09-19T04:07:59;8.63;;;2.75;;
18748;SDS011;9503;53.560;10.246;2023-09-19T04:10:26;2.90;;;2.05;;
18748;SDS011;9503;53.560;10.246;2023-09-19T04:12:53;10.75;;;2.90;;
18748;SDS011;9503;53.560;10.246;2023-09-19T04:15:20;7.28;;;2.15;;
18748;SDS011;9503;53.560;10.246;2023-09-19T04:17:48;6.15;;;2.08;;
18748;SDS011;9503;53.560;10.246;2023-09-19T04:20:16;6.72;;;1.67;;
18748;SDS011;9503;53.560;10.246;2023-09-19T04:22:44;6.90;;;1.90;;
18748;SDS011;9503;53.560;10.246;2023-09-19T04:25:11;6.93;;;2.08;;
18748;SDS011;9503;53.560;10.246;2023-09-19T04:27:38;3.45;;;1.80;;
18748;SDS011;9503;53.560;10.246;2023-09-19T04:30:06;10.10;;;3.60;;
18748;SDS011;9503;53.560;10.246;2023-09-19T04:32:35;6.05;;;2.10;;
18748;SDS011;9503;53.560;10.246;2023-09-19T04:35:04;7.97;;;1.83;;
18748;SDS011;9503;53.560;10.246;2023-09-19T04:37:36;7.00;;;2.63;;
18748;SDS011;9503;53.560;10.246;2023-09-19T04:40:05;3.60;;;2.00;;
18748;SDS011;9503;53.560;10.246;2023-09-19T04:42:37;5.72;;;2.13;;
18748;SDS011;9503;53.560;10.246;2023-09-19T04:45:05;5.72;;;2.40;;
18748;SDS011;9503;53.560;10.246;2023-09-19T04:47:32;6.45;;;1.98;;
18748;SDS011;9503;53.560;10.246;2023-09-19T04:49:59;5.43;;;2.00;;
18748;SDS011;9503;53.560;10.246;2023-09-19T04:52:26;3.95;;;1.83;;
18748;SDS011;9503;53.560;10.246;2023-09-19T04:54:54;8.57;;;1.75;;
18748;SDS011;9503;53.560;10.246;2023-09-19T04:57:20;6.40;;;1.65;;
18748;SDS011;9503;53.560;10.246;2023-09-19T04:59:47;4.53;;;1.70;;
18748;SDS011;9503;53.560;10.246;2023-09-19T05:02:15;7.03;;;1.80;;
18748;SDS011;9503;53.560;10.246;2023-09-19T05:04:41;7.72;;;2.08;;
18748;SDS011;9503;53.560;10.246;2023-09-19T05:07:08;6.80;;;1.97;;
18748;SDS011;9503;53.560;10.246;2023-09-19T05:09:36;5.00;;;2.40;;
18748;SDS011;9503;53.560;10.246;2023-09-19T05:12:05;10.82;;;2.10;;
18748;SDS011;9503;53.560;10.246;2023-09-19T05:14:32;4.27;;;1.87;;
18748;SDS011;9503;53.560;10.246;2023-09-19T05:16:58;13.17;;;2.10;;
18748;SDS011;9503;53.560;10.246;2023-09-19T05:19:25;6.70;;;1.97;;
18748;SDS011;9503;53.560;10.246;2023-09-19T05:21:52;4.22;;;1.77;;
18748;SDS011;9503;53.560;10.246;2023-09-19T05:24:20;5.73;;;1.77;;
18748;SDS011;9503;53.560;10.246;2023-09-19T05:26:48;6.15;;;2.70;;
18748;SDS011;9503;53.560;10.246;2023-09-19T05:29:16;5.35;;;1.83;;
18748;SDS011;9503;53.560;10.246;2023-09-19T05:31:43;4.95;;;1.88;;
18748;SDS011;9503;53.560;10.246;2023-09-19T05:34:09;11.07;;;2.73;;
18748;SDS011;9503;53.560;10.246;2023-09-19T05:36:36;5.90;;;2.10;;
18748;SDS011;9503;53.560;10.246;2023-09-19T05:39:04;6.30;;;1.90;;
18748;SDS011;9503;53.560;10.246;2023-09-19T05:41:34;8.02;;;1.98;;
18748;SDS011;9503;53.560;10.246;2023-09-19T05:44:01;4.63;;;2.03;;
18748;SDS011;9503;53.560;10.246;2023-09-19T05:46:29;8.30;;;2.03;;
18748;SDS011;9503;53.560;10.246;2023-09-19T05:48:56;8.52;;;2.25;;
18748;SDS011;9503;53.560;10.246;2023-09-19T05:51:23;7.37;;;1.70;;
18748;SDS011;9503;53.560;10.246;2023-09-19T05:53:50;9.85;;;2.03;;
18748;SDS011;9503;53.560;10.246;2023-09-19T05:56:20;4.90;;;1.75;;
18748;SDS011;9503;53.560;10.246;2023-09-19T05:58:46;8.25;;;2.05;;
18748;SDS011;9503;53.560;10.246;2023-09-19T06:01:13;5.00;;;2.33;;
18748;SDS011;9503;53.560;10.246;2023-09-19T06:03:41;7.25;;;1.85;;
18748;SDS011;9503;53.560;10.246;2023-09-19T06:06:08;8.50;;;2.15;;
18748;SDS011;9503;53.560;10.246;2023-09-19T06:08:34;6.25;;;2.20;;
18748;SDS011;9503;53.560;10.246;2023-09-19T06:11:01;8.15;;;2.50;;
18748;SDS011;9503;53.560;10.246;2023-09-19T06:13:30;7.25;;;2.00;;
18748;SDS011;9503;53.560;10.246;2023-09-19T06:15:58;6.00;;;2.13;;
18748;SDS011;9503;53.560;10.246;2023-09-19T06:18:28;10.50;;;2.10;;
18748;SDS011;9503;53.560;10.246;2023-09-19T06:21:00;8.02;;;2.10;;
18748;SDS011;9503;53.560;10.246;2023-09-19T06:23:30;6.22;;;2.10;;
18748;SDS011;9503;53.560;10.246;2023-09-19T06:25:57;4.97;;;2.38;;
18748;SDS011;9503;53.560;10.246;2023-09-19T06:28:23;6.45;;;1.90;;
18748;SDS011;9503;53.560;10.246;2023-09-19T06:30:53;6.50;;;1.75;;
18748;SDS011;9503;53.560;10.246;2023-09-19T06:33:20;5.85;;;1.92;;
18748;SDS011;9503;53.560;10.246;2023-09-19T06:35:46;10.45;;;2.78;;
18748;SDS011;9503;53.560;10.246;2023-09-19T06:38:14;9.38;;;2.22;;
18748;SDS011;9503;53.560;10.246;2023-09-19T06:40:44;5.22;;;2.10;;
18748;SDS011;9503;53.560;10.246;2023-09-19T06:43:11;7.20;;;1.70;;
18748;SDS011;9503;53.560;10.246;2023-09-19T06:45:38;7.22;;;2.67;;
18748;SDS011;9503;53.560;10.246;2023-09-19T06:48:05;4.75;;;2.10;;
18748;SDS011;9503;53.560;10.246;2023-09-19T06:50:32;8.50;;;2.28;;
18748;SDS011;9503;53.560;10.246;2023-09-19T06:52:59;7.63;;;2.03;;
18748;SDS011;9503;53.560;10.246;2023-09-19T06:55:28;7.82;;;2.67;;
18748;SDS011;9503;53.560;10.246;2023-09-19T06:57:56;6.35;;;1.90;;
18748;SDS011;9503;53.560;10.246;2023-09-19T07:00:24;7.65;;;3.33;;
18748;SDS011;9503;53.560;10.246;2023-09-19T07:02:57;4.47;;;2.03;;
18748;SDS011;9503;53.560;10.246;2023-09-19T07:05:26;6.93;;;2.42;;
18748;SDS011;9503;53.560;10.246;2023-09-19T07:07:53;7.53;;;2.35;;
18748;SDS011;9503;53.560;10.246;2023-09-19T07:10:20;3.67;;;2.17;;
18748;SDS011;9503;53.560;10.246;2023-09-19T07:12:54;5.25;;;2.20;;
18748;SDS011;9503;53.560;10.246;2023-09-19T07:15:21;4.13;;;1.95;;
18748;SDS011;9503;53.560;10.246;2023-09-19T07:17:50;17.17;;;2.75;;
18748;SDS011;9503;53.560;10.246;2023-09-19T07:20:17;4.65;;;2.15;;
18748;SDS011;9503;53.560;10.246;2023-09-19T07:22:43;3.28;;;1.98;;
18748;SDS011;9503;53.560;10.246;2023-09-19T07:25:10;11.98;;;3.78;;
18748;SDS011;9503;53.560;10.246;2023-09-19T07:27:39;13.18;;;2.38;;
18748;SDS011;9503;53.560;10.246;2023-09-19T07:30:07;7.70;;;2.40;;
18748;SDS011;9503;53.560;10.246;2023-09-19T07:32:34;6.15;;;2.20;;
18748;SDS011;9503;53.560;10.246;2023-09-19T07:35:03;10.63;;;2.45;;
18748;SDS011;9503;53.560;10.246;2023-09-19T07:37:31;11.82;;;2.70;;
18748;SDS011;9503;53.560;10.246;2023-09-19T07:39:58;6.82;;;1.95;;
18748;SDS011;9503;53.560;10.246;2023-09-19T07:42:26;8.25;;;2.47;;
18748;SDS011;9503;53.560;10.246;2023-09-19T07:44:52;10.27;;;2.40;;
18748;SDS011;9503;53.560;10.246;2023-09-19T07:47:20;6.88;;;2.10;;
18748;SDS011;9503;53.560;10.246;2023-09-19T07:49:47;12.35;;;2.35;;
18748;SDS011;9503;53.560;10.246;2023-09-19T07:52:13;15.38;;;2.85;;
18748;SDS011;9503;53.560;10.246;2023-09-19T07:54:40;7.72;;;2.80;;
18748;SDS011;9503;53.560;10.246;2023-09-19T07:57:09;9.13;;;2.70;;
18748;SDS011;9503;53.560;10.246;2023-09-19T07:59:36;8.43;;;3.05;;
18748;SDS011;9503;53.560;10.246;2023-09-19T08:02:03;10.80;;;3.95;;
18748;SDS011;9503;53.560;10.246;2023-09-19T08:04:32;7.95;;;2.58;;
18748;SDS011;9503;53.560;10.246;2023-09-19T08:06:58;6.07;;;2.40;;
18748;SDS011;9503;53.560;10.246;2023-09-19T08:09:25;6.90;;;3.25;;
18748;SDS011;9503;53.560;10.246;2023-09-19T08:11:52;8.45;;;2.05;;
18748;SDS011;9503;53.560;10.246;2023-09-19T08:14:19;6.45;;;2.45;;
18748;SDS011;9503;53.560;10.246;2023-09-19T08:16:47;15.50;;;2.70;;
18748;SDS011;9503;53.560;10.246;2023-09-19T08:19:14;6.63;;;2.20;;
18748;SDS011;9503;53.560;10.246;2023-09-19T08:21:42;2.92;;;2.13;;
18748;SDS011;9503;53.560;10.246;2023-09-19T08:24:12;11.50;;;2.40;;
18748;SDS011;9503;53.560;10.246;2023-09-19T08:26:39;10.48;;;2.60;;
18748;SDS011;9503;53.560;10.246;2023-09-19T08:29:06;9.48;;;2.83;;
18748;SDS011;9503;53.560;10.246;2023-09-19T08:31:33;5.28;;;2.55;;
18748;SDS011;9503;53.560;10.246;2023-09-19T08:34:00;11.77;;;3.20;;
18748;SDS011;9503;53.560;10.246;2023-09-19T08:36:26;12.18;;;3.60;;
18748;SDS011;9503;53.560;10.246;2023-09-19T08:38:54;12.40;;;2.33;;
18748;SDS011;9503;53.560;10.246;2023-09-19T08:41:21;9.40;;;3.50;;
18748;SDS011;9503;53.560;10.246;2023-09-19T08:43:48;7.45;;;2.60;;
18748;SDS011;9503;53.560;10.246;2023-09-19T08:46:16;10.85;;;2.60;;
18748;SDS011;9503;53.560;10.246;2023-09-19T08:48:45;6.90;;;3.28;;
18748;SDS011;9503;53.560;10.246;2023-09-19T08:51:17;8.45;;;2.42;;
18748;SDS011;9503;53.560;10.246;2023-09-19T08:53:47;6.82;;;2.53;;
18748;SDS011;9503;53.560;10.246;2023-09-19T08:56:19;10.57;;;2.80;;
18748;SDS011;9503;53.560;10.246;2023-09-19T08:58:49;11.55;;;2.53;;
18748;SDS011;9503;53.560;10.246;2023-09-19T09:01:20;13.07;;;2.63;;
18748;SDS011;9503;53.560;10.246;2023-09-19T09:03:49;7.65;;;2.67;;
18748;SDS011;9503;53.560;10.246;2023-09-19T09:06:17;11.77;;;3.05;;
18748;SDS011;9503;53.560;10.246;2023-09-19T09:08:45;10.18;;;2.30;;
18748;SDS011;9503;53.560;10.246;2023-09-19T09:11:13;7.00;;;2.55;;
18748;SDS011;9503;53.560;10.246;2023-09-19T09:13:43;5.07;;;2.92;;
18748;SDS011;9503;53.560;10.246;2023-09-19T09:16:11;11.65;;;2.58;;
18748;SDS011;9503;53.560;10.246;2023-09-19T09:18:38;7.15;;;3.00;;
18748;SDS011;9503;53.560;10.246;2023-09-19T09:21:06;9.88;;;2.28;;
18748;SDS011;9503;53.560;10.246;2023-09-19T09:23:32;13.02;;;3.10;;
18748;SDS011;9503;53.560;10.246;2023-09-19T09:25:59;7.20;;;2.60;;
18748;SDS011;9503;53.560;10.246;2023-09-19T09:28:29;6.78;;;2.13;;
18748;SDS011;9503;53.560;10.246;2023-09-19T09:30:59;6.97;;;2.55;;
18748;SDS011;9503;53.560;10.246;2023-09-19T09:33:28;7.70;;;2.60;;
18748;SDS011;9503;53.560;10.246;2023-09-19T09:35:55;8.95;;;2.65;;
18748;SDS011;9503;53.560;10.246;2023-09-19T09:38:23;10.95;;;2.60;;
18748;SDS011;9503;53.560;10.246;2023-09-19T09:40:57;6.95;;;2.45;;
18748;SDS011;9503;53.560;10.246;2023-09-19T09:43:32;8.55;;;2.33;;
18748;SDS011;9503;53.560;10.246;2023-09-19T09:46:08;4.88;;;2.45;;
18748;SDS011;9503;53.560;10.246;2023-09-19T09:49:05;13.13;;;2.53;;
18748;SDS011;9503;53.560;10.246;2023-09-19T09:51:41;6.03;;;2.67;;
18748;SDS011;9503;53.560;10.246;2023-09-19T09:54:11;6.75;;;2.17;;
18748;SDS011;9503;53.560;10.246;2023-09-19T09:56:51;8.50;;;2.25;;
18748;SDS011;9503;53.560;10.246;2023-09-19T09:59:18;8.20;;;1.98;;
18748;SDS011;9503;53.560;10.246;2023-09-19T10:01:50;6.93;;;1.90;;
18748;SDS011;9503;53.560;10.246;2023-09-19T10:04:26;7.45;;;2.60;;
18748;SDS011;9503;53.560;10.246;2023-09-19T10:06:56;11.05;;;2.45;;
18748;SDS011;9503;53.560;10.246;2023-09-19T10:09:23;7.63;;;2.00;;
18748;SDS011;9503;53.560;10.246;2023-09-19T10:12:03;6.80;;;1.92;;
18748;SDS011;9503;53.560;10.246;2023-09-19T10:14:34;5.97;;;2.03;;
18748;SDS011;9503;53.560;10.246;2023-09-19T10:17:05;7.90;;;2.05;;
18748;SDS011;9503;53.560;10.246;2023-09-19T10:19:36;9.10;;;2.33;;
18748;SDS011;9503;53.560;10.246;2023-09-19T10:22:05;9.32;;;2.60;;
18748;SDS011;9503;53.560;10.246;2023-09-19T10:24:34;6.97;;;2.33;;
18748;SDS011;9503;53.560;10.246;2023-09-19T10:27:03;8.55;;;1.85;;
18748;SDS011;9503;53.560;10.246;2023-09-19T10:29:33;5.55;;;1.83;;
18748;SDS011;9503;53.560;10.246;2023-09-19T10:32:02;6.40;;;1.90;;
18748;SDS011;9503;53.560;10.246;2023-09-19T10:34:34;6.47;;;2.05;;
18748;SDS011;9503;53.560;10.246;2023-09-19T10:37:02;3.63;;;1.73;;
18748;SDS011;9503;53.560;10.246;2023-09-19T10:39:31;10.60;;;1.90;;
18748;SDS011;9503;53.560;10.246;2023-09-19T10:42:01;7.68;;;1.80;;
18748;SDS011;9503;53.560;10.246;2023-09-19T10:44:31;6.10;;;2.13;;
18748;SDS011;9503;53.560;10.246;2023-09-19T10:46:59;4.55;;;1.75;;
18748;SDS011;9503;53.560;10.246;2023-09-19T10:49:26;4.47;;;1.80;;
18748;SDS011;9503;53.560;10.246;2023-09-19T10:51:54;6.25;;;2.42;;
18748;SDS011;9503;53.560;10.246;2023-09-19T10:54:26;9.95;;;2.40;;
18748;SDS011;9503;53.560;10.246;2023-09-19T10:56:57;6.18;;;2.30;;
18748;SDS011;9503;53.560;10.246;2023-09-19T10:59:25;6.55;;;1.80;;
18748;SDS011;9503;53.560;10.246;2023-09-19T11:01:59;10.85;;;2.60;;
18748;SDS011;9503;53.560;10.246;2023-09-19T11:04:43;3.10;;;1.98;;
18748;SDS011;9503;53.560;10.246;2023-09-19T11:07:13;4.72;;;1.98;;
18748;SDS011;9503;53.560;10.246;2023-09-19T11:09:44;7.50;;;1.98;;
18748;SDS011;9503;53.560;10.246;2023-09-19T11:12:12;6.88;;;2.08;;
18748;SDS011;9503;53.560;10.246;2023-09-19T11:14:40;4.57;;;1.85;;
18748;SDS011;9503;53.560;10.246;2023-09-19T11:23:23;6.00;;;1.60;;
18748;SDS011;9503;53.560;10.246;2023-09-19T11:25:52;5.03;;;2.00;;
18748;SDS011;9503;53.560;10.246;2023-09-19T11:28:32;8.25;;;2.00;;
18748;SDS011;9503;53.560;10.246;2023-09-19T11:40:46;4.03;;;2.03;;
18748;SDS011;9503;53.560;10.246;2023-09-19T11:43:30;6.63;;;2.03;;
18748;SDS011;9503;53.560;10.246;2023-09-19T11:46:05;6.35;;;1.95;;
18748;SDS011;9503;53.560;10.246;2023-09-19T11:48:40;8.27;;;2.05;;
18748;SDS011;9503;53.560;10.246;2023-09-19T11:51:10;6.05;;;2.17;;
18748;SDS011;9503;53.560;10.246;2023-09-19T11:53:44;7.20;;;2.00;;
18748;SDS011;9503;53.560;10.246;2023-09-19T11:56:14;5.70;;;2.40;;
18748;SDS011;9503;53.560;10.246;2023-09-19T11:58:42;6.88;;;2.00;;
18748;SDS011;9503;53.560;10.246;2023-09-19T12:01:11;6.28;;;1.90;;
18748;SDS011;9503;53.560;10.246;2023-09-19T12:03:45;5.78;;;1.73;;
18748;SDS011;9503;53.560;10.246;2023-09-19T12:06:13;4.80;;;2.00;;
18748;SDS011;9503;53.560;10.246;2023-09-19T12:08:41;6.60;;;2.03;;
18748;SDS011;9503;53.560;10.246;2023-09-19T12:11:11;5.20;;;2.53;;
18748;SDS011;9503;53.560;10.246;2023-09-19T12:13:42;6.60;;;2.30;;
18748;SDS011;9503;53.560;10.246;2023-09-19T12:16:13;4.57;;;2.00;;
18748;SDS011;9503;53.560;10.246;2023-09-19T12:18:42;6.70;;;2.30;;
18748;SDS011;9503;53.560;10.246;2023-09-19T12:21:21;13.38;;;2.42;;
18748;SDS011;9503;53.560;10.246;2023-09-19T12:23:56;6.93;;;2.00;;
18748;SDS011;9503;53.560;10.246;2023-09-19T12:26:26;6.20;;;2.03;;
18748;SDS011;9503;53.560;10.246;2023-09-19T12:28:54;4.38;;;2.05;;
18748;SDS011;9503;53.560;10.246;2023-09-19T12:31:22;7.70;;;2.22;;
18748;SDS011;9503;53.560;10.246;2023-09-19T12:33:53;6.03;;;2.42;;
18748;SDS011;9503;53.560;10.246;2023-09-19T12:36:20;4.68;;;1.90;;
18748;SDS011;9503;53.560;10.246;2023-09-19T12:38:50;6.47;;;2.20;;
18748;SDS011;9503;53.560;10.246;2023-09-19T12:41:18;7.20;;;1.83;;
18748;SDS011;9503;53.560;10.246;2023-09-19T12:43:46;4.13;;;2.08;;
18748;SDS011;9503;53.560;10.246;2023-09-19T12:46:14;6.80;;;2.28;;
18748;SDS011;9503;53.560;10.246;2023-09-19T12:48:44;14.25;;;2.60;;
18748;SDS011;9503;53.560;10.246;2023-09-19T12:51:13;5.72;;;2.05;;
18748;SDS011;9503;53.560;10.246;2023-09-19T12:53:41;7.20;;;2.38;;
18748;SDS011;9503;53.560;10.246;2023-09-19T12:56:12;6.22;;;2.33;;
18748;SDS011;9503;53.560;10.246;2023-09-19T12:58:53;5.80;;;2.10;;
18748;SDS011;9503;53.560;10.246;2023-09-19T13:01:23;9.05;;;2.17;;
18748;SDS011;9503;53.560;10.246;2023-09-19T13:06:37;3.78;;;2.10;;
18748;SDS011;9503;53.560;10.246;2023-09-19T13:09:08;8.07;;;2.75;;
18748;SDS011;9503;53.560;10.246;2023-09-19T13:11:35;8.82;;;2.33;;
18748;SDS011;9503;53.560;10.246;2023-09-19T13:14:15;5.97;;;2.25;;
18748;SDS011;9503;53.560;10.246;2023-09-19T13:16:57;4.32;;;1.92;;
18748;SDS011;9503;53.560;10.246;2023-09-19T13:19:35;7.78;;;2.40;;
18748;SDS011;9503;53.560;10.246;2023-09-19T13:25:04;9.07;;;2.25;;
18748;SDS011;9503;53.560;10.246;2023-09-19T13:27:33;5.18;;;2.03;;
18748;SDS011;9503;53.560;10.246;2023-09-19T13:29:59;5.60;;;2.30;;
18748;SDS011;9503;53.560;10.246;2023-09-19T13:32:27;3.70;;;1.88;;
18748;SDS011;9503;53.560;10.246;2023-09-19T13:34:54;7.40;;;2.40;;
18748;SDS011;9503;53.560;10.246;2023-09-19T13:37:21;11.02;;;2.50;;
18748;SDS011;9503;53.560;10.246;2023-09-19T13:39:47;6.40;;;2.28;;
18748;SDS011;9503;53.560;10.246;2023-09-19T13:42:14;6.97;;;2.33;;
18748;SDS011;9503;53.560;10.246;2023-09-19T13:44:41;5.55;;;1.70;;
18748;SDS011;9503;53.560;10.246;2023-09-19T13:47:08;5.57;;;2.15;;
18748;SDS011;9503;53.560;10.246;2023-09-19T13:49:36;6.50;;;2.10;;
18748;SDS011;9503;53.560;10.246;2023-09-19T13:52:03;6.82;;;2.38;;
18748;SDS011;9503;53.560;10.246;2023-09-19T13:54:30;5.55;;;2.05;;
18748;SDS011;9503;53.560;10.246;2023-09-19T13:56:57;5.28;;;2.20;;
18748;SDS011;9503;53.560;10.246;2023-09-19T13:59:23;4.03;;;1.88;;
18748;SDS011;9503;53.560;10.246;2023-09-19T14:01:50;6.53;;;2.10;;
18748;SDS011;9503;53.560;10.246;2023-09-19T14:04:18;4.63;;;1.75;;
18748;SDS011;9503;53.560;10.246;2023-09-19T14:06:47;6.88;;;2.95;;
18748;SDS011;9503;53.560;10.246;2023-09-19T14:09:14;3.97;;;2.08;;
18748;SDS011;9503;53.560;10.246;2023-09-19T14:11:44;3.50;;;1.92;;
18748;SDS011;9503;53.560;10.246;2023-09-19T14:14:12;8.43;;;2.72;;
18748;SDS011;9503;53.560;10.246;2023-09-19T14:16:39;6.97;;;2.88;;
18748;SDS011;9503;53.560;10.246;2023-09-19T14:19:07;6.07;;;2.08;;
18748;SDS011;9503;53.560;10.246;2023-09-19T14:21:34;4.53;;;2.15;;
18748;SDS011;9503;53.560;10.246;2023-09-19T14:24:03;5.65;;;2.20;;
18748;SDS011;9503;53.560;10.246;2023-09-19T14:26:31;10.07;;;2.55;;
18748;SDS011;9503;53.560;10.246;2023-09-19T14:28:58;6.18;;;1.80;;
18748;SDS011;9503;53.560;10.246;2023-09-19T14:31:25;6.47;;;1.90;;
18748;SDS011;9503;53.560;10.246;2023-09-19T14:33:53;8.73;;;2.47;;
18748;SDS011;9503;53.560;10.246;2023-09-19T14:36:21;3.92;;;1.90;;
18748;SDS011;9503;53.560;10.246;2023-09-19T14:38:47;7.82;;;2.42;;
18748;SDS011;9503;53.560;10.246;2023-09-19T14:41:21;6.90;;;2.35;;
18748;SDS011;9503;53.560;10.246;2023-09-19T14:43:48;9.27;;;2.72;;
18748;SDS011;9503;53.560;10.246;2023-09-19T14:46:15;5.88;;;2.28;;
18748;SDS011;9503;53.560;10.246;2023-09-19T14:48:43;6.38;;;2.35;;
18748;SDS011;9503;53.560;10.246;2023-09-19T14:51:12;9.10;;;2.40;;
18748;SDS011;9503;53.560;10.246;2023-09-19T14:53:39;6.15;;;2.40;;
18748;SDS011;9503;53.560;10.246;2023-09-19T14:56:07;7.45;;;2.13;;
18748;SDS011;9503;53.560;10.246;2023-09-19T14:58:35;9.75;;;2.30;;
18748;SDS011;9503;53.560;10.246;2023-09-19T15:01:04;6.30;;;2.50;;
18748;SDS011;9503;53.560;10.246;2023-09-19T15:03:31;13.00;;;2.20;;
18748;SDS011;9503;53.560;10.246;2023-09-19T15:05:59;6.10;;;2.00;;
18748;SDS011;9503;53.560;10.246;2023-09-19T15:08:26;5.55;;;2.55;;
18748;SDS011;9503;53.560;10.246;2023-09-19T15:10:53;10.48;;;2.85;;
18748;SDS011;9503;53.560;10.246;2023-09-19T15:13:20;7.93;;;2.45;;
18748;SDS011;9503;53.560;10.246;2023-09-19T15:15:49;5.75;;;1.92;;
18748;SDS011;9503;53.560;10.246;2023-09-19T15:18:16;7.22;;;2.22;;
18748;SDS011;9503;53.560;10.246;2023-09-19T15:20:43;4.22;;;2.13;;